Time;durP1;ratioP1;P1;durP2;ratioP2;P2;SDS_P1;SDS_P2;PMS_P1;PMS_P2;Temp;Humidity;BMP_temperature;BMP_pressure;BME280_temperature;BME280_humidity;BME280_pressure;Samples;Min_cycle;Max_cycle;Signal;HPM_P1;HPM_P2
2021/08/08 00:01:59;;;;;;;;;;;;;;;25.23;60.56;99156.53;5260881;27;21853;-91
2021/08/08 00:04:24;;;;;;;;;;;;;;;25.20;60.55;99148.84;5279090;27;21795;-91
2021/08/08 00:06:50;;;;;;;;;;;;;;;25.33;60.56;99151.12;5279292;27;20002;-91
2021/08/08 00:09:15;;;;;;;;;;;;;;;25.28;60.55;99143.56;5279310;27;20550;-91
2021/08/08 00:11:40;;;;;;;;;;;;;;;25.39;60.56;99150.47;5261332;27;19996;-91
2021/08/08 00:14:05;;;;;;;;;;;;;;;25.33;60.57;99141.28;5261439;27;19981;-90
2021/08/08 00:16:31;;;;;;;;;;;;;;;25.30;60.57;99148.75;5261079;27;20007;-92
2021/08/08 00:18:56;;;;;;;;;;;;;;;25.17;60.56;99146.50;5261406;27;20306;-91
2021/08/08 00:21:21;;;;;;;;;;;;;;;25.16;60.56;99144.00;5261479;27;19972;-91
2021/08/08 00:23:46;;;;;;;;;;;;;;;25.34;60.56;99134.13;5279842;27;19988;-92
2021/08/08 00:26:12;;;;;;;;;;;;;;;25.30;60.57;99146.91;5261042;27;20708;-91
2021/08/08 00:28:37;;;;;;;;;;;;;;;25.19;60.55;99141.84;5261341;27;20005;-90
2021/08/08 00:31:02;;;;;;;;;;;;;;;25.20;60.55;99146.19;5278783;27;23637;-93
2021/08/08 00:33:27;;;;;;;;;;;;;;;25.28;60.55;99145.41;5262075;27;19994;-92
2021/08/08 00:35:52;;;;;;;;;;;;;;;25.30;60.57;99136.25;5279879;27;23393;-93
2021/08/08 00:38:18;;;;;;;;;;;;;;;25.20;60.55;99138.19;5261949;27;20762;-92
2021/08/08 00:40:43;;;;;;;;;;;;;;;25.25;60.56;99141.22;5261979;27;20014;-92
2021/08/08 00:43:09;;;;;;;;;;;;;;;25.14;60.55;99141.50;5262259;27;19976;-92
2021/08/08 00:45:35;;;;;;;;;;;;;;;25.03;60.54;99144.41;5281333;27;20662;-93
2021/08/08 00:48:00;;;;;;;;;;;;;;;24.97;60.54;99147.66;5282154;27;19952;-92
2021/08/08 00:50:25;;;;;;;;;;;;;;;24.86;60.54;99147.94;5272045;27;19975;-92
2021/08/08 00:52:51;;;;;;;;;;;;;;;24.87;60.53;99154.94;5284890;27;20425;-92
2021/08/08 00:55:17;;;;;;;;;;;;;;;24.90;60.53;99151.94;5280263;27;19979;-92
2021/08/08 00:57:42;;;;;;;;;;;;;;;24.71;60.53;99156.44;5262185;27;19971;-92
2021/08/08 01:00:08;;;;;;;;;;;;;;;24.82;60.53;99157.19;5262228;27;20007;-91
2021/08/08 01:02:33;;;;;;;;;;;;;;;24.77;60.54;99168.31;5280062;27;20334;-92
2021/08/08 01:05:01;;;;;;;;;;;;;;;24.60;60.52;99175.28;5262267;27;20282;-92
2021/08/08 01:07:27;;;;;;;;;;;;;;;24.40;60.51;99179.94;5280415;27;19968;-92
2021/08/08 01:09:53;;;;;;;;;;;;;;;24.30;60.51;99175.66;5280207;27;20309;-92
2021/08/08 01:12:18;;;;;;;;;;;;;;;24.36;60.52;99186.53;5272549;27;19972;-92
2021/08/08 01:14:43;;;;;;;;;;;;;;;24.30;60.50;99196.94;5278927;27;20012;-92
2021/08/08 01:17:09;;;;;;;;;;;;;;;24.16;60.50;99199.13;5295373;27;19956;-91
2021/08/08 01:19:39;;;;;;;;;;;;;;;24.13;60.50;99198.53;5285859;27;19968;-92
2021/08/08 01:22:04;;;;;;;;;;;;;;;24.20;60.51;99189.00;5284226;27;19968;-92
2021/08/08 01:24:29;;;;;;;;;;;;;;;24.20;60.51;99191.66;5261890;27;20030;-91
2021/08/08 01:26:54;;;;;;;;;;;;;;;24.00;60.49;99193.59;5261531;27;20305;-92
2021/08/08 01:29:19;;;;;;;;;;;;;;;24.02;60.49;99191.63;5279760;27;20262;-89
2021/08/08 01:31:49;;;;;;;;;;;;;;;23.91;60.49;99191.84;5279402;27;19961;-92
2021/08/08 01:34:14;;;;;;;;;;;;;;;24.01;60.50;99194.44;5261390;27;19967;-92
2021/08/08 01:36:39;;;;;;;;;;;;;;;23.96;60.48;99197.53;5260495;27;20055;-91
2021/08/08 01:39:05;;;;;;;;;;;;;;;24.04;60.50;99189.66;5261404;27;20030;-93
2021/08/08 01:41:32;;;;;;;;;;;;;;;24.06;60.50;99181.53;5279353;27;20027;-91
2021/08/08 01:43:58;;;;;;;;;;;;;;;24.16;60.50;99172.53;5279381;27;19976;-92
2021/08/08 01:46:25;;;;;;;;;;;;;;;24.19;60.50;99174.03;5261305;27;20314;-92
2021/08/08 01:48:50;;;;;;;;;;;;;;;24.29;60.50;99166.03;5262673;27;19996;-92
2021/08/08 01:51:16;;;;;;;;;;;;;;;24.26;60.50;99169.78;5280393;27;19991;-93
2021/08/08 01:53:41;;;;;;;;;;;;;;;24.29;60.51;99168.69;5261562;27;20018;-90
2021/08/08 01:56:06;;;;;;;;;;;;;;;24.27;60.50;99170.63;5279496;27;19959;-90
2021/08/08 01:58:31;;;;;;;;;;;;;;;24.31;60.51;99175.50;5279074;27;19984;-90
2021/08/08 02:00:57;;;;;;;;;;;;;;;24.29;60.51;99171.34;5261834;27;20010;-90
2021/08/08 02:03:31;;;;;;;;;;;;;;;24.26;60.50;99161.81;5261909;27;19973;-89
2021/08/08 02:05:56;;;;;;;;;;;;;;;24.34;60.51;99150.44;5279728;27;19968;-90
2021/08/08 02:08:21;;;;;;;;;;;;;;;24.25;60.50;99149.50;5261149;27;20398;-90
2021/08/08 02:10:47;;;;;;;;;;;;;;;24.19;60.50;99156.25;5261661;27;19984;-91
2021/08/08 02:13:12;;;;;;;;;;;;;;;24.18;60.50;99151.94;5279406;27;21280;-90
2021/08/08 02:15:37;;;;;;;;;;;;;;;24.02;60.49;99159.72;5279855;27;20214;-90
2021/08/08 02:18:02;;;;;;;;;;;;;;;24.00;60.49;99156.38;5279858;27;19988;-90
2021/08/08 02:20:28;;;;;;;;;;;;;;;23.94;60.49;99162.28;5261766;27;19964;-90
2021/08/08 02:22:53;;;;;;;;;;;;;;;24.12;60.49;99157.00;5261382;27;26661;-90
2021/08/08 02:25:18;;;;;;;;;;;;;;;24.18;60.50;99156.41;5261576;27;20487;-88
2021/08/08 02:27:43;;;;;;;;;;;;;;;24.16;60.50;99164.53;5279074;27;19999;-89
2021/08/08 02:30:09;;;;;;;;;;;;;;;23.94;60.48;99169.44;5278494;27;23617;-89
2021/08/08 02:32:34;;;;;;;;;;;;;;;23.96;60.48;99176.28;5278982;27;19982;-89
2021/08/08 02:35:00;;;;;;;;;;;;;;;24.03;60.48;99177.34;5261230;27;19955;-88
2021/08/08 02:37:25;;;;;;;;;;;;;;;23.77;60.47;99182.50;5260430;27;25839;-89
2021/08/08 02:39:50;;;;;;;;;;;;;;;23.78;60.47;99189.50;5260548;27;21437;-88
2021/08/08 02:42:15;;;;;;;;;;;;;;;23.77;60.48;99187.00;5260516;27;29342;-89
2021/08/08 02:44:40;;;;;;;;;;;;;;;23.81;60.47;99191.03;5279014;27;20573;-89
2021/08/08 02:47:06;;;;;;;;;;;;;;;23.89;60.49;99186.63;5279234;27;19994;-88
2021/08/08 02:49:31;;;;;;;;;;;;;;;23.60;60.47;99185.09;5279517;27;19978;-88
2021/08/08 02:51:56;;;;;;;;;;;;;;;23.66;60.47;99180.06;5299338;27;20024;-90
2021/08/08 02:54:21;;;;;;;;;;;;;;;23.61;60.47;99184.09;5280125;27;19976;-90
2021/08/08 02:56:47;;;;;;;;;;;;;;;23.43;60.46;99200.78;5263822;27;19996;-90
2021/08/08 02:59:12;;;;;;;;;;;;;;;23.47;60.46;99193.37;5301312;27;19987;-91
2021/08/08 03:01:37;;;;;;;;;;;;;;;23.44;60.46;99194.50;5280022;27;20241;-90
2021/08/08 03:04:03;;;;;;;;;;;;;;;23.50;60.47;99196.56;5261238;27;20632;-90
2021/08/08 03:06:28;;;;;;;;;;;;;;;23.42;60.46;99199.13;5261880;27;19976;-90
2021/08/08 03:08:53;;;;;;;;;;;;;;;23.31;60.45;99204.59;5279622;27;20046;-90
2021/08/08 03:11:18;;;;;;;;;;;;;;;23.36;60.46;99206.81;5279395;27;19988;-89
2021/08/08 03:13:44;;;;;;;;;;;;;;;23.32;60.46;99213.38;5279688;27;20367;-90
2021/08/08 03:16:09;;;;;;;;;;;;;;;23.10;60.44;99210.06;5279626;27;19998;-90
2021/08/08 03:18:34;;;;;;;;;;;;;;;23.08;60.44;99208.53;5260684;27;24132;-91
2021/08/08 03:20:59;;;;;;;;;;;;;;;;;;5261400;27;19968;-90
2021/08/08 03:23:24;;;;;;;;;;;;;;;23.06;60.44;99216.63;5279888;27;20000;-90
2021/08/08 03:25:50;;;;;;;;;;;;;;;23.24;60.45;99227.38;5261663;27;20002;-91
2021/08/08 03:28:15;;;;;;;;;;;;;;;23.11;60.43;99243.59;5280127;27;19982;-90
2021/08/08 03:30:40;;;;;;;;;;;;;;;22.90;60.43;99248.22;5261738;27;19992;-90
2021/08/08 03:33:05;;;;;;;;;;;;;;;22.70;60.42;99242.00;5279990;27;20282;-90
2021/08/08 03:35:31;;;;;;;;;;;;;;;22.70;60.41;99249.97;5261499;27;19984;-91
2021/08/08 03:37:56;;;;;;;;;;;;;;;22.63;60.42;99252.34;5261248;27;19976;-91
2021/08/08 03:40:21;;;;;;;;;;;;;;;22.47;60.40;99248.53;5279744;27;19968;-91
2021/08/08 03:42:47;;;;;;;;;;;;;;;22.53;60.41;99254.16;5279615;27;20253;-89
2021/08/08 03:45:12;;;;;;;;;;;;;;;22.39;60.40;99254.53;5279873;27;19964;-89
2021/08/08 03:47:37;;;;;;;;;;;;;;;22.31;60.39;99257.88;5279221;27;20197;-91
2021/08/08 03:50:02;;;;;;;;;;;;;;;22.42;60.41;99256.06;5279760;27;19979;-90
2021/08/08 03:52:28;;;;;;;;;;;;;;;22.35;60.41;99247.84;5279929;27;19983;-90
2021/08/08 03:54:53;;;;;;;;;;;;;;;22.42;60.41;99253.44;5279862;27;20294;-92
2021/08/08 03:57:18;;;;;;;;;;;;;;;22.51;60.41;99247.31;5262978;27;19971;-91
2021/08/08 03:59:43;;;;;;;;;;;;;;;22.41;60.41;99252.59;5262965;27;20018;-91
2021/08/08 04:02:09;;;;;;;;;;;;;;;22.58;60.41;99251.94;5262456;27;19978;-91
2021/08/08 04:04:34;;;;;;;;;;;;;;;22.47;60.41;99265.28;5262288;27;20000;-92
2021/08/08 04:06:59;;;;;;;;;;;;;;;22.48;60.41;99277.63;5262820;27;20306;-92
2021/08/08 04:09:24;;;;;;;;;;;;;;;22.39;60.40;99273.09;5280380;27;19983;-91
2021/08/08 04:11:49;;;;;;;;;;;;;;;22.23;60.39;99284.22;5261773;27;19991;-92
2021/08/08 04:14:15;;;;;;;;;;;;;;;22.15;60.39;99281.41;5262720;27;20345;-92
2021/08/08 04:16:40;;;;;;;;;;;;;;;22.07;60.38;99293.66;5262497;27;19971;-91
2021/08/08 04:19:05;;;;;;;;;;;;;;;22.02;60.38;99301.97;5262934;27;19988;-91
2021/08/08 04:21:31;;;;;;;;;;;;;;;22.16;60.39;99306.94;5279682;27;19983;-89
2021/08/08 04:23:57;;;;;;;;;;;;;;;22.06;60.38;99308.72;5280038;27;20014;-90
2021/08/08 04:26:22;;;;;;;;;;;;;;;22.14;60.39;99319.47;5272431;27;20019;-91
2021/08/08 04:28:47;;;;;;;;;;;;;;;22.28;60.40;99318.28;5295215;27;19986;-91
2021/08/08 04:31:12;;;;;;;;;;;;;;;22.46;60.40;99321.13;5308731;27;19968;-89
2021/08/08 04:33:38;;;;;;;;;;;;;;;22.49;60.41;99320.88;5282101;27;20008;-89
2021/08/08 04:36:03;;;;;;;;;;;;;;;22.59;60.41;99327.03;5262624;27;19980;-90
2021/08/08 04:38:28;;;;;;;;;;;;;;;22.59;60.41;99329.69;5261482;27;20320;-90
2021/08/08 04:40:54;;;;;;;;;;;;;;;22.59;60.42;99327.03;5279575;27;20003;-90
2021/08/08 04:43:19;;;;;;;;;;;;;;;22.55;60.40;99323.00;5261807;27;19994;-91
2021/08/08 04:45:44;;;;;;;;;;;;;;;22.47;60.40;99330.75;5279811;27;20007;-90
2021/08/08 04:48:09;;;;;;;;;;;;;;;22.40;60.39;99326.97;5279354;27;20229;-90
2021/08/08 04:50:34;;;;;;;;;;;;;;;22.49;60.40;99327.03;5278625;27;21164;-91
2021/08/08 04:53:00;;;;;;;;;;;;;;;22.58;60.41;99333.31;5278867;27;20003;-90
2021/08/08 04:55:25;;;;;;;;;;;;;;;22.55;60.41;99330.94;5260743;27;19972;-90
2021/08/08 04:57:50;;;;;;;;;;;;;;;22.65;60.42;99342.41;5281592;27;19975;-90
2021/08/08 05:00:16;;;;;;;;;;;;;;;22.71;60.41;99341.03;5285024;27;19964;-91
2021/08/08 05:02:45;;;;;;;;;;;;;;;22.72;60.41;99342.72;5261822;27;19964;-89
2021/08/08 05:05:11;;;;;;;;;;;;;;;22.71;60.41;99347.16;5275501;27;112349;-89
2021/08/08 05:07:38;;;;;;;;;;;;;;;22.93;60.42;99352.28;5261912;27;19984;-91
2021/08/08 05:10:14;;;;;;;;;;;;;;;22.85;60.42;99349.47;5279437;27;19960;-91
2021/08/08 05:12:40;;;;;;;;;;;;;;;22.87;60.42;99347.53;5279463;27;19997;-89
2021/08/08 05:15:05;;;;;;;;;;;;;;;23.00;60.43;99351.75;5298836;27;19964;-90
2021/08/08 05:17:31;;;;;;;;;;;;;;;23.03;60.42;99356.78;5279483;27;19981;-90
2021/08/08 05:19:56;;;;;;;;;;;;;;;23.05;60.44;99358.31;5279349;27;19953;-90
2021/08/08 05:22:21;;;;;;;;;;;;;;;23.01;60.43;99356.09;5278469;27;20025;-91
2021/08/08 05:24:46;;;;;;;;;;;;;;;23.08;60.43;99365.16;5280081;27;19965;-91
2021/08/08 05:27:12;;;;;;;;;;;;;;;23.12;60.44;99358.59;5261238;27;19976;-88
2021/08/08 05:29:37;;;;;;;;;;;;;;;23.14;60.44;99356.62;5298947;27;19986;-88
2021/08/08 05:32:02;;;;;;;;;;;;;;;23.09;60.43;99350.91;5279470;27;20570;-90
2021/08/08 05:34:27;;;;;;;;;;;;;;;23.06;60.44;99351.19;5279260;27;19987;-89
2021/08/08 05:36:53;;;;;;;;;;;;;;;22.90;60.42;99362.34;5279723;27;20269;-92
2021/08/08 05:39:18;;;;;;;;;;;;;;;22.95;60.42;99363.63;5280267;27;19971;-89
2021/08/08 05:41:43;;;;;;;;;;;;;;;23.00;60.43;99362.38;5261984;27;19989;-92
2021/08/08 05:44:08;;;;;;;;;;;;;;;23.15;60.44;99367.13;5279867;27;19979;-89
2021/08/08 05:46:34;;;;;;;;;;;;;;;23.11;60.43;99370.19;5279282;27;20011;-88
2021/08/08 05:48:59;;;;;;;;;;;;;;;22.95;60.42;99376.06;5279307;27;20032;-88
2021/08/08 05:51:24;;;;;;;;;;;;;;;23.05;60.43;99365.44;5279297;27;20007;-90
2021/08/08 05:53:49;;;;;;;;;;;;;;;23.16;60.44;99371.44;5279723;27;19956;-89
2021/08/08 05:56:15;;;;;;;;;;;;;;;23.21;60.44;99371.91;5260494;27;28403;-88
2021/08/08 05:58:40;;;;;;;;;;;;;;;23.16;60.44;99367.97;5279592;27;19963;-89
2021/08/08 06:01:06;;;;;;;;;;;;;;;22.98;60.43;99378.44;5279620;27;19992;-91
2021/08/08 06:03:31;;;;;;;;;;;;;;;22.96;60.42;99369.78;5280290;27;19957;-93
2021/08/08 06:05:56;;;;;;;;;;;;;;;23.11;60.43;99378.16;5262056;27;19984;-90
2021/08/08 06:08:21;;;;;;;;;;;;;;;23.02;60.43;99373.69;5299089;27;20007;-89
2021/08/08 06:10:47;;;;;;;;;;;;;;;23.20;60.44;99370.22;5277969;27;21046;-87
2021/08/08 06:13:12;;;;;;;;;;;;;;;23.40;60.45;99372.88;5278568;27;24079;-88
2021/08/08 06:15:37;;;;;;;;;;;;;;;23.39;60.45;99374.69;5278048;27;19983;-87
2021/08/08 06:18:02;;;;;;;;;;;;;;;23.33;60.44;99366.44;5278404;27;21677;-87
2021/08/08 06:20:27;;;;;;;;;;;;;;;23.60;60.46;99382.53;5278294;27;19972;-84
2021/08/08 06:22:53;;;;;;;;;;;;;;;23.88;60.47;99375.50;5299045;27;20018;-87
2021/08/08 06:25:18;;;;;;;;;;;;;;;23.82;60.48;99379.59;5278714;27;19968;-85
2021/08/08 06:27:43;;;;;;;;;;;;;;;23.74;60.47;99376.81;5260693;27;19957;-85
2021/08/08 06:30:09;;;;;;;;;;;;;;;23.78;60.47;99380.84;5298727;27;19984;-86
2021/08/08 06:32:34;;;;;;;;;;;;;;;23.86;60.47;99388.09;5298567;27;20015;-86
2021/08/08 06:34:59;;;;;;;;;;;;;;;24.05;60.49;99382.75;5277967;27;25592;-88
2021/08/08 06:37:24;;;;;;;;;;;;;;;24.11;60.48;99400.78;5278934;27;19964;-86
2021/08/08 06:39:50;;;;;;;;;;;;;;;24.13;60.49;99398.00;5298753;27;20324;-87
2021/08/08 06:42:15;;;;;;;;;;;;;;;24.13;60.49;99390.00;5298722;27;19976;-85
2021/08/08 06:44:40;;;;;;;;;;;;;;;23.92;60.48;99395.53;5277803;27;35183;-86
2021/08/08 06:47:05;;;;;;;;;;;;;;;24.08;60.49;99393.09;5298456;27;24313;-86
2021/08/08 06:49:31;;;;;;;;;;;;;;;24.25;60.49;99396.84;5279189;27;20310;-87
2021/08/08 06:51:56;;;;;;;;;;;;;;;24.18;60.49;99393.94;5298648;27;20013;-87
2021/08/08 06:54:21;;;;;;;;;;;;;;;24.30;60.50;99402.59;5278118;27;24218;-86
2021/08/08 06:56:46;;;;;;;;;;;;;;;24.46;60.51;99405.50;5297522;27;20012;-88
2021/08/08 06:59:13;;;;;;;;;;;;;;;24.44;60.51;99396.81;5298248;27;29451;-87
2021/08/08 07:01:38;;;;;;;;;;;;;;;24.64;60.51;99396.75;5298007;27;19982;-88
2021/08/08 07:04:04;;;;;;;;;;;;;;;24.75;60.51;99408.03;5297104;27;20290;-87
2021/08/08 07:06:29;;;;;;;;;;;;;;;24.55;60.51;99403.75;5297352;27;20001;-88
2021/08/08 07:08:54;;;;;;;;;;;;;;;24.82;60.52;99407.41;5277388;27;19983;-87
2021/08/08 07:11:20;;;;;;;;;;;;;;;24.88;60.52;99412.19;5276793;27;20832;-87
2021/08/08 07:13:45;;;;;;;;;;;;;;;24.71;60.52;99414.63;5276661;27;20377;-87
2021/08/08 07:16:10;;;;;;;;;;;;;;;25.00;60.53;99411.00;5276671;27;29832;-87
2021/08/08 07:18:35;;;;;;;;;;;;;;;24.93;60.53;99413.41;5297210;27;19977;-87
2021/08/08 07:21:01;;;;;;;;;;;;;;;24.96;60.53;99422.91;5297309;27;19964;-87
2021/08/08 07:23:26;;;;;;;;;;;;;;;25.19;60.54;99423.38;5277482;27;20343;-87
2021/08/08 07:25:51;;;;;;;;;;;;;;;25.06;60.53;99421.87;5276851;27;22166;-87
2021/08/08 07:28:16;;;;;;;;;;;;;;;25.02;60.53;99419.69;5258823;27;22783;-86
2021/08/08 07:30:41;;;;;;;;;;;;;;;25.08;60.54;99417.28;5297464;27;19998;-88
2021/08/08 07:33:07;;;;;;;;;;;;;;;25.29;60.55;99427.63;5298217;27;20268;-86
2021/08/08 07:35:32;;;;;;;;;;;;;;;25.46;60.55;99422.47;5260274;27;19956;-86
2021/08/08 07:37:58;;;;;;;;;;;;;;;25.50;60.56;99423.84;5298128;27;19999;-87
2021/08/08 07:40:24;;;;;;;;;;;;;;;25.55;60.56;99417.09;5298512;27;20006;-87
2021/08/08 07:42:49;;;;;;;;;;;;;;;25.81;60.58;99427.00;5298470;27;19969;-87
2021/08/08 07:45:15;;;;;;;;;;;;;;;25.93;60.58;99426.59;5286050;27;20030;-88
2021/08/08 07:47:40;;;;;;;;;;;;;;;26.10;60.59;99432.06;5287424;27;19988;-88
2021/08/08 07:50:05;;;;;;;;;;;;;;;25.83;60.57;99425.84;5265666;27;20226;-88
2021/08/08 07:52:30;;;;;;;;;;;;;;;25.93;60.58;99433.75;5261318;27;19995;-87
2021/08/08 07:54:56;;;;;;;;;;;;;;;25.93;60.59;99429.25;5275829;27;89272;-87
2021/08/08 07:57:22;;;;;;;;;;;;;;;26.13;60.59;99432.56;5261574;27;20031;-88
2021/08/08 07:59:47;;;;;;;;;;;;;;;26.09;60.58;99431.22;5279146;27;20663;-87
2021/08/08 08:02:12;;;;;;;;;;;;;;;26.11;60.59;99439.06;5299115;27;19992;-88
2021/08/08 08:04:37;;;;;;;;;;;;;;;26.20;60.60;99443.44;5279080;27;20276;-87
2021/08/08 08:07:03;;;;;;;;;;;;;;;26.40;60.60;99449.47;5278627;27;25030;-87
2021/08/08 08:09:28;;;;;;;;;;;;;;;26.39;60.60;99442.44;5299017;27;20010;-88
2021/08/08 08:11:53;;;;;;;;;;;;;;;26.57;60.62;99449.41;5298825;27;20256;-88
2021/08/08 08:14:18;;;;;;;;;;;;;;;26.46;60.60;99444.31;5279465;27;19964;-88
2021/08/08 08:16:44;;;;;;;;;;;;;;;26.59;60.61;99450.06;5298188;27;29215;-88
2021/08/08 08:19:09;;;;;;;;;;;;;;;26.62;60.61;99451.59;5278629;27;28140;-87
2021/08/08 08:21:34;;;;;;;;;;;;;;;26.48;60.60;99460.16;5278725;27;21460;-87
2021/08/08 08:23:59;;;;;;;;;;;;;;;26.82;60.63;99453.03;5278545;27;26905;-88
2021/08/08 08:26:25;;;;;;;;;;;;;;;26.95;60.64;99449.91;5278835;27;19987;-87
2021/08/08 08:28:50;;;;;;;;;;;;;;;26.74;60.62;99446.81;5260759;27;19977;-88
2021/08/08 08:31:15;;;;;;;;;;;;;;;26.77;60.62;99438.50;5260022;27;30674;-87
2021/08/08 08:33:40;;;;;;;;;;;;;;;26.86;60.62;99445.53;5278503;27;25417;-88
2021/08/08 08:36:05;;;;;;;;;;;;;;;27.03;60.65;99436.63;5260399;27;19968;-86
2021/08/08 08:38:31;;;;;;;;;;;;;;;27.43;60.65;99446.56;5298692;27;19969;-88
2021/08/08 08:40:56;;;;;;;;;;;;;;;27.53;60.67;99457.12;5279082;27;20359;-87
2021/08/08 08:43:25;;;;;;;;;;;;;;;27.48;60.66;99448.78;5278951;27;19957;-89
2021/08/08 08:45:50;;;;;;;;;;;;;;;27.40;60.65;99438.88;5278873;27;19984;-90
2021/08/08 08:48:19;;;;;;;;;;;;;;;27.66;60.68;99452.13;5278858;27;19971;-89
2021/08/08 08:50:44;;;;;;;;;;;;;;;27.79;60.67;99441.81;5279071;27;19972;-89
2021/08/08 08:53:09;;;;;;;;;;;;;;;27.73;60.67;99447.81;5278948;27;19989;-89
2021/08/08 08:55:35;;;;;;;;;;;;;;;27.75;60.67;99445.81;5260564;27;20026;-90
2021/08/08 08:58:00;;;;;;;;;;;;;;;27.94;60.68;99441.16;5279723;27;19964;-89
2021/08/08 09:00:25;;;;;;;;;;;;;;;28.01;60.68;99448.31;5281068;27;19964;-89
2021/08/08 09:02:50;;;;;;;;;;;;;;;28.23;60.70;99441.44;5279855;27;20204;-90
2021/08/08 09:05:16;;;;;;;;;;;;;;;28.40;60.70;99448.47;5261653;27;19969;-91
2021/08/08 09:07:41;;;;;;;;;;;;;;;28.60;60.71;99450.75;5279734;27;19977;-90
2021/08/08 09:10:10;;;;;;;;;;;;;;;28.55;60.71;99442.41;5279635;27;19975;-90
2021/08/08 09:12:35;;;;;;;;;;;;;;;28.73;60.72;99451.06;5279897;27;19963;-90
2021/08/08 09:15:02;;;;;;;;;;;;;;;28.74;60.72;99448.22;5261527;27;20032;-91
2021/08/08 09:17:27;;;;;;;;;;;;;;;29.05;60.74;99447.44;5279594;27;20361;-91
2021/08/08 09:19:59;;;;;;;;;;;;;;;29.17;60.74;99450.56;5279990;27;20007;-90
2021/08/08 09:22:27;;;;;;;;;;;;;;;29.17;60.74;99451.41;5279794;27;19992;-90
2021/08/08 09:24:52;;;;;;;;;;;;;;;29.36;60.75;99452.00;5280109;27;20336;-91
2021/08/08 09:27:17;;;;;;;;;;;;;;;29.49;60.75;99447.72;5261502;27;20266;-90
2021/08/08 09:29:43;;;;;;;;;;;;;;;29.38;60.76;99458.00;5261113;27;24552;-91
2021/08/08 09:32:08;;;;;;;;;;;;;;;29.24;60.75;99457.72;5279714;27;20210;-91
2021/08/08 09:34:34;;;;;;;;;;;;;;;29.26;60.76;99454.88;5261764;27;20260;-91
2021/08/08 09:37:02;;;;;;;;;;;;;;;29.33;60.76;99463.88;5261791;27;19972;-91
2021/08/08 09:39:31;;;;;;;;;;;;;;;29.52;60.77;99459.94;5279719;27;19967;-91
2021/08/08 09:42:08;;;;;;;;;;;;;;;29.70;60.77;99459.66;5299556;27;19965;-90
2021/08/08 09:44:33;;;;;;;;;;;;;;;29.92;60.78;99451.59;5299444;27;20033;-89
2021/08/08 09:46:58;;;;;;;;;;;;;;;29.86;60.78;99468.44;5279446;27;20295;-88
2021/08/08 09:49:24;;;;;;;;;;;;;;;29.77;60.78;99464.12;5298745;27;23551;-89
2021/08/08 09:51:49;;;;;;;;;;;;;;;29.85;60.77;99461.41;5279615;27;19998;-89
2021/08/08 09:54:15;;;;;;;;;;;;;;;29.99;60.79;99464.28;5279450;27;20004;-89
2021/08/08 09:56:40;;;;;;;;;;;;;;;29.98;60.80;99470.66;5278976;27;22273;-90
2021/08/08 09:59:05;;;;;;;;;;;;;;;30.08;60.80;99472.16;5279494;27;19975;-89
2021/08/08 10:01:36;;;;;;;;;;;;;;;30.21;60.80;99466.13;5278848;27;27698;-89
2021/08/08 10:04:01;;;;;;;;;;;;;;;30.36;60.80;99468.88;5279637;27;20041;-89
2021/08/08 10:06:26;;;;;;;;;;;;;;;30.52;60.80;99461.47;5298465;27;32794;-89
2021/08/08 10:08:51;;;;;;;;;;;;;;;30.65;60.82;99466.22;5260715;27;20744;-89
2021/08/08 10:11:19;;;;;;;;;;;;;;;30.41;60.81;99461.09;5279447;27;19960;-89
2021/08/08 10:13:44;;;;;;;;;;;;;;;30.44;60.82;99453.50;5280246;27;19969;-89
2021/08/08 10:16:12;;;;;;;;;;;;;;;30.52;60.81;99457.94;5299362;27;20020;-90
2021/08/08 10:18:44;;;;;;;;;;;;;;;30.38;60.81;99464.97;5299450;27;19944;-89
2021/08/08 10:21:10;;;;;;;;;;;;;;;30.42;60.81;99458.22;5279688;27;19956;-89
2021/08/08 10:23:35;;;;;;;;;;;;;;;30.39;60.81;99463.94;5279728;27;19975;-89
2021/08/08 10:26:00;;;;;;;;;;;;;;;30.50;60.82;99471.53;5279578;27;19972;-89
2021/08/08 10:28:26;;;;;;;;;;;;;;;30.49;60.81;99464.50;5278685;27;29113;-89
2021/08/08 10:30:51;;;;;;;;;;;;;;;30.67;60.82;99458.81;5278737;27;31074;-90
2021/08/08 10:33:16;;;;;;;;;;;;;;;30.70;60.83;99471.88;5279486;27;19998;-89
2021/08/08 10:35:43;;;;;;;;;;;;;;;30.67;60.82;99466.03;5279501;27;19980;-89
2021/08/08 10:38:09;;;;;;;;;;;;;;;30.80;60.83;99463.56;5279567;27;19964;-89
2021/08/08 10:40:36;;;;;;;;;;;;;;;30.97;60.84;99456.94;5279596;27;19949;-89
2021/08/08 10:43:01;;;;;;;;;;;;;;;30.88;60.83;99458.06;5261720;27;20036;-90
2021/08/08 10:45:27;;;;;;;;;;;;;;;30.90;60.83;99455.19;5279475;27;20238;-88
2021/08/08 10:47:57;;;;;;;;;;;;;;;30.60;60.83;99452.50;5279620;27;19979;-90
2021/08/08 10:50:22;;;;;;;;;;;;;;;30.49;60.81;99451.06;5279461;27;19956;-90
2021/08/08 10:52:47;;;;;;;;;;;;;;;30.54;60.83;99446.00;5278941;27;20022;-89
2021/08/08 10:55:27;;;;;;;;;;;;;;;30.56;60.82;99459.25;5279272;27;20230;-88
2021/08/08 10:57:52;;;;;;;;;;;;;;;30.71;60.82;99453.91;5299151;27;19976;-89
2021/08/08 11:00:17;;;;;;;;;;;;;;;30.93;60.85;99449.44;5279600;27;19975;-90
2021/08/08 11:02:46;;;;;;;;;;;;;;;30.83;60.83;99457.78;5299516;27;19976;-90
2021/08/08 11:05:12;;;;;;;;;;;;;;;30.88;60.83;99449.16;5281535;27;19983;-89
2021/08/08 11:07:37;;;;;;;;;;;;;;;30.83;60.83;99444.37;5300480;27;19945;-89
2021/08/08 11:10:03;;;;;;;;;;;;;;;30.80;60.84;99442.88;5280024;27;20338;-90
2021/08/08 11:12:33;;;;;;;;;;;;;;;30.95;60.84;99442.00;5262774;27;20008;-89
2021/08/08 11:14:58;;;;;;;;;;;;;;;31.30;60.85;99441.25;5301033;27;20043;-90
2021/08/08 11:17:27;;;;;;;;;;;;;;;31.53;60.87;99433.00;5286827;27;21662;-87
2021/08/08 11:19:52;;;;;;;;;;;;;;;31.62;60.87;99433.72;5290474;27;19947;-89
2021/08/08 11:22:18;;;;;;;;;;;;;;;31.64;60.88;99442.41;5289511;27;19984;-90
2021/08/08 11:24:43;;;;;;;;;;;;;;;31.55;60.87;99435.50;5263639;27;20043;-90
2021/08/08 11:27:09;;;;;;;;;;;;;;;31.68;60.87;99444.53;5281263;27;19968;-90
2021/08/08 11:29:34;;;;;;;;;;;;;;;31.41;60.87;99451.50;5299742;27;19948;-90
2021/08/08 11:32:00;;;;;;;;;;;;;;;31.25;60.86;99448.22;5279592;27;19980;-89
2021/08/08 11:34:25;;;;;;;;;;;;;;;31.46;60.86;99454.44;5279886;27;19982;-90
2021/08/08 11:36:51;;;;;;;;;;;;;;;31.68;60.88;99451.75;5299462;27;19978;-89
2021/08/08 11:39:16;;;;;;;;;;;;;;;31.67;60.88;99448.25;5299373;27;19952;-90
2021/08/08 11:41:42;;;;;;;;;;;;;;;31.70;60.88;99449.72;5279691;27;20077;-89
2021/08/08 11:44:07;;;;;;;;;;;;;;;31.54;60.87;99452.69;5279767;27;19969;-89
2021/08/08 11:46:33;;;;;;;;;;;;;;;31.40;60.87;99454.38;5299139;27;19988;-90
2021/08/08 11:48:58;;;;;;;;;;;;;;;31.58;60.87;99460.16;5279510;27;19948;-90
2021/08/08 11:51:23;;;;;;;;;;;;;;;31.68;60.88;99455.28;5299064;27;19984;-89
2021/08/08 11:53:52;;;;;;;;;;;;;;;31.84;60.88;99450.72;5298597;27;19975;-89
2021/08/08 11:56:18;;;;;;;;;;;;;;;31.89;60.89;99451.78;5279129;27;19991;-90
2021/08/08 11:58:44;;;;;;;;;;;;;;;31.90;60.89;99458.00;5279109;27;19964;-90
2021/08/08 12:01:09;;;;;;;;;;;;;;;32.11;60.89;99459.84;5298919;27;20840;-89
2021/08/08 12:03:35;;;;;;;;;;;;;;;32.15;60.90;99456.56;5279385;27;20006;-89
2021/08/08 12:06:00;;;;;;;;;;;;;;;32.18;60.90;99450.81;5260895;27;20349;-91
2021/08/08 12:08:25;;;;;;;;;;;;;;;32.02;60.89;99451.91;5278925;27;19984;-90
2021/08/08 12:10:54;;;;;;;;;;;;;;;32.13;60.90;99447.03;5278459;27;24366;-90
2021/08/08 12:13:20;;;;;;;;;;;;;;;32.10;60.90;99455.50;5260996;27;19971;-90
2021/08/08 12:15:45;;;;;;;;;;;;;;;32.15;60.90;99445.78;5261173;27;19983;-90
2021/08/08 12:18:11;;;;;;;;;;;;;;;32.16;60.90;99446.63;5278678;27;20007;-90
2021/08/08 12:20:37;;;;;;;;;;;;;;;32.08;60.90;99446.78;5279385;27;19965;-90
2021/08/08 12:23:03;;;;;;;;;;;;;;;32.03;60.88;99456.28;5261195;27;20036;-89
2021/08/08 12:25:28;;;;;;;;;;;;;;;32.13;60.90;99441.62;5279251;27;19972;-91
2021/08/08 12:27:53;;;;;;;;;;;;;;;32.49;60.92;99442.34;5297696;27;23299;-90
2021/08/08 12:30:18;;;;;;;;;;;;;;;32.55;60.93;99455.03;5260216;27;25314;-89
2021/08/08 12:32:44;;;;;;;;;;;;;;;32.52;60.93;99451.91;5298410;27;19971;-90
2021/08/08 12:35:11;;;;;;;;;;;;;;;32.59;60.93;99458.97;5298888;27;19960;-90
2021/08/08 12:37:36;;;;;;;;;;;;;;;32.55;60.92;99446.09;5279694;27;19963;-90
2021/08/08 12:40:08;;;;;;;;;;;;;;;32.79;60.94;99452.87;5262118;27;20034;-90